Главная страница
METAR-TAF:

METAR-TAF

Аэропорты :

Oswego County Airport

Фултон, Нью-Йорк, США

широта: 43-21-03N, долгота: 076-23-17W, высота над уровнем моря: 145 м

Текущие метеонаблюдения

Эта сводка был подготовлена 28 минут назад, в 16:31 UTC
Ветер 13 Узел от западный-юго-западный с порывами до 22 Узел
Температура 1°C
Влажность 64%
Давление 1014 hPa
Видимость: 8.0 км
Рассеянная облачность на высоте 2700 фута
Сплошная облачность на высоте 3500 фута
небольшой снег

METAR: KFZY 161631Z AUTO 25013G22KT 5SM -SN BKN027 OVC035 01/M05 A2994 RMK AO2 UPB08E11SNE08B11 P0000 T00111050

Время: 11:59 (16:59 UTC)


TAF: отсутствует

Метеонаблюдения и прогнозы для более 4000 аэропортов (сводки METAR и TAF).

Имеющиеся станции представлены на карте желтыми и красными точками.

Чтобы увидеть название станции, наведите на нее мышь.

Затем щелкните, чтобы увидеть метеонаблюдения и метеопрогнозы.

Управление картой: чтобы увеличить масштаб, щелкните зеленые кнопки с черным крестиком; чтобы уменьшить масштаб, щелкните зеленую кнопку с тире; для просмотра соседних карт щелкайте зеленые стрелки.


METAR-TAF: